Minneapolis, Minnesota
Traffic Map
Current Weather Conditions
Minneapolis, Minnesota
Clear
Clear
18°
Feels Like: 18°
Wind Chill: 18° Ceiling: Unl
Heat Index: 18° Visibility: 10mi
Dew Point: 14° Wind: 3mph
Humidity: 78% Direction: 230° (SW)
Pressure: 30.03in Gusts: 0mph
Raw Report DataKMSP 310853Z 23003KT 10SM CLR 18/14 A3003 RMK AO2 SLP166 T01830144 56004
Traffic Incident Summary
Active as of:
Severity:
Category:
InformationThere was an issue retrieving the traffic information for this location. Please try a different location or try again shortly.
Advertisements
Track Severe Weather on mobile